Time;durP1;ratioP1;P1;durP2;ratioP2;P2;SDS_P1;SDS_P2;PMS_P1;PMS_P2;Temp;Humidity;BMP_temperature;BMP_pressure;BME280_temperature;BME280_humidity;BME280_pressure;Samples;Min_cycle;Max_cycle;Signal;HPM_P1;HPM_P2
2024/02/06 00:01:15;;;;;;;1.17;1.10;;;9.80;99.90;;;;;;4401018;32;20078;-79
2024/02/06 00:03:41;;;;;;;0.50;0.50;;;9.80;99.90;;;;;;4404332;32;20079;-79
2024/02/06 00:06:06;;;;;;;0.30;0.30;;;9.80;99.90;;;;;;4403479;32;20515;-77
2024/02/06 00:08:35;;;;;;;0.55;0.55;;;9.80;99.90;;;;;;4402696;32;20085;-77
2024/02/06 00:11:00;;;;;;;0.60;0.60;;;9.80;99.90;;;;;;4399544;32;20493;-79
2024/02/06 00:13:26;;;;;;;1.17;0.75;;;9.80;99.90;;;;;;4397434;32;20079;-78
2024/02/06 00:15:51;;;;;;;0.70;0.70;;;9.80;99.90;;;;;;4406559;32;20458;-78
2024/02/06 00:18:17;;;;;;;1.67;1.25;;;9.80;99.90;;;;;;4405253;32;20517;-77
2024/02/06 00:20:42;;;;;;;0.30;0.30;;;9.80;99.90;;;;;;4405721;32;20125;-78
2024/02/06 00:23:08;;;;;;;8.02;2.95;;;9.80;99.90;;;;;;4406629;32;20077;-78
2024/02/06 00:25:33;;;;;;;4.80;1.42;;;9.70;99.90;;;;;;4405368;32;20089;-78
2024/02/06 00:27:59;;;;;;;1.45;1.02;;;9.70;99.90;;;;;;4402719;32;20589;-78
2024/02/06 00:30:25;;;;;;;0.30;0.30;;;9.70;99.90;;;;;;4399383;32;20139;-78
2024/02/06 00:32:52;;;;;;;0.30;0.30;;;9.70;99.90;;;;;;4402265;32;20117;-79
2024/02/06 00:35:18;;;;;;;0.57;0.57;;;9.70;99.90;;;;;;4400127;32;20189;-77
2024/02/06 00:37:44;;;;;;;0.50;0.50;;;9.70;99.90;;;;;;4400329;32;20514;-77
2024/02/06 00:40:10;;;;;;;5.68;2.60;;;9.70;99.90;;;;;;4401042;32;20209;-77
2024/02/06 00:42:35;;;;;;;1.08;0.62;;;9.70;99.90;;;;;;4400771;32;20065;-79
2024/02/06 00:45:02;;;;;;;2.25;1.33;;;9.80;99.90;;;;;;4399398;32;20133;-77
2024/02/06 00:47:28;;;;;;;0.73;0.73;;;9.70;99.90;;;;;;4403325;32;20117;-78
2024/02/06 00:49:54;;;;;;;0.32;0.32;;;9.70;99.90;;;;;;4401951;32;20094;-79
2024/02/06 00:52:20;;;;;;;0.30;0.30;;;9.70;99.90;;;;;;4404560;32;20066;-79
2024/02/06 00:54:46;;;;;;;1.70;1.15;;;9.70;99.90;;;;;;4403658;32;20078;-78
2024/02/06 00:57:11;;;;;;;11.90;2.55;;;9.70;99.90;;;;;;4400486;32;20132;-78
2024/02/06 00:59:37;;;;;;;0.40;0.40;;;9.70;99.90;;;;;;4403424;32;20102;-78
2024/02/06 01:02:02;;;;;;;0.60;0.60;;;9.70;99.90;;;;;;4402841;32;20098;-78
2024/02/06 01:04:28;;;;;;;2.00;1.05;;;9.70;99.90;;;;;;4399177;32;20102;-77
2024/02/06 01:06:53;;;;;;;0.82;0.80;;;9.70;99.90;;;;;;4401353;32;20730;-76
2024/02/06 01:09:19;;;;;;;26.95;0.85;;;9.70;99.90;;;;;;4400729;32;20084;-77
2024/02/06 01:11:44;;;;;;;2.00;1.55;;;9.70;99.90;;;;;;4403784;32;20077;-78
2024/02/06 01:14:11;;;;;;;1.37;0.62;;;9.70;99.90;;;;;;4403077;32;20743;-78
2024/02/06 01:16:36;;;;;;;1.30;1.17;;;9.60;99.90;;;;;;4405244;32;20068;-77
2024/02/06 01:19:02;;;;;;;0.55;0.55;;;9.70;99.90;;;;;;4402266;32;20124;-78
2024/02/06 01:21:27;;;;;;;0.45;0.45;;;9.70;99.90;;;;;;4404045;32;20066;-75
2024/02/06 01:23:53;;;;;;;0.82;0.77;;;9.70;99.90;;;;;;4407160;32;20789;-78
2024/02/06 01:26:18;;;;;;;32.42;0.77;;;9.70;99.90;;;;;;4401287;32;20397;-78
2024/02/06 01:28:45;;;;;;;0.57;0.57;;;9.60;99.90;;;;;;4402340;32;20084;-78
2024/02/06 01:31:12;;;;;;;0.40;0.40;;;9.60;99.90;;;;;;4402755;32;20077;-77
2024/02/06 01:33:38;;;;;;;0.82;0.82;;;9.60;99.90;;;;;;4406057;32;21223;-78
2024/02/06 01:36:04;;;;;;;2.15;1.10;;;9.50;99.90;;;;;;4402803;32;20078;-78
2024/02/06 01:38:30;;;;;;;0.50;0.50;;;9.50;99.90;;;;;;4403712;32;20507;-77
2024/02/06 01:40:56;;;;;;;0.82;0.82;;;9.40;99.90;;;;;;4404552;32;20075;-78
2024/02/06 01:43:21;;;;;;;0.57;0.57;;;9.40;99.90;;;;;;4403760;32;20132;-78
2024/02/06 01:45:52;;;;;;;0.47;0.47;;;9.40;99.90;;;;;;4404617;32;20066;-77
2024/02/06 01:48:18;;;;;;;4.45;2.40;;;9.40;99.90;;;;;;4407307;32;20065;-77
2024/02/06 01:50:45;;;;;;;0.30;0.30;;;9.40;99.90;;;;;;4405468;32;20089;-78
2024/02/06 01:53:11;;;;;;;3.53;1.62;;;9.40;99.90;;;;;;4404717;32;20070;-78
2024/02/06 01:55:38;;;;;;;0.60;0.45;;;9.40;99.90;;;;;;4405239;32;21179;-77
2024/02/06 01:58:04;;;;;;;0.52;0.50;;;9.40;99.90;;;;;;4400431;32;20077;-77
2024/02/06 02:00:29;;;;;;;0.95;0.90;;;9.40;99.90;;;;;;4403065;32;21397;-78
2024/02/06 02:02:56;;;;;;;5.57;2.53;;;9.40;99.90;;;;;;4403855;32;20353;-78
2024/02/06 02:05:22;;;;;;;1.02;0.73;;;9.30;99.90;;;;;;4403020;32;20549;-78
2024/02/06 02:07:48;;;;;;;1.12;1.05;;;9.30;99.90;;;;;;4403342;32;20081;-78
2024/02/06 02:10:13;;;;;;;0.47;0.47;;;9.30;99.90;;;;;;4400933;32;20066;-77
2024/02/06 02:12:40;;;;;;;0.30;0.30;;;9.30;99.90;;;;;;4401447;32;20404;-78
2024/02/06 02:15:06;;;;;;;1.52;1.00;;;9.30;99.90;;;;;;4404461;32;20073;-77
2024/02/06 02:17:31;;;;;;;0.40;0.40;;;9.30;99.90;;;;;;4408471;32;20073;-78
2024/02/06 02:19:57;;;;;;;0.55;0.55;;;9.20;99.90;;;;;;4403311;32;20069;-77
2024/02/06 02:22:22;;;;;;;0.47;0.47;;;9.20;99.90;;;;;;4403870;32;20478;-77
2024/02/06 02:24:50;;;;;;;0.30;0.30;;;9.20;99.90;;;;;;4403864;32;20097;-77
2024/02/06 02:27:16;;;;;;;1.15;0.95;;;9.20;99.90;;;;;;4403290;32;20078;-77
2024/02/06 02:29:42;;;;;;;0.40;0.40;;;9.20;99.90;;;;;;4402361;32;20086;-78
2024/02/06 02:32:09;;;;;;;2.22;0.90;;;9.20;99.90;;;;;;4404829;32;20121;-76
2024/02/06 02:34:35;;;;;;;0.47;0.47;;;9.20;99.90;;;;;;4404517;32;20462;-76
2024/02/06 02:37:01;;;;;;;0.62;0.57;;;9.20;99.90;;;;;;4401661;32;20077;-77
2024/02/06 02:39:26;;;;;;;4.72;1.95;;;9.20;99.90;;;;;;4405946;32;20121;-76
2024/02/06 02:41:52;;;;;;;2.37;0.60;;;9.20;99.90;;;;;;4402715;32;20081;-78
2024/02/06 02:44:17;;;;;;;2.60;1.77;;;9.20;99.90;;;;;;4401770;32;20078;-75
2024/02/06 02:46:43;;;;;;;0.22;0.22;;;9.20;99.90;;;;;;4402552;32;20089;-78
2024/02/06 02:49:08;;;;;;;0.30;0.30;;;9.20;99.90;;;;;;4402529;32;20484;-76
2024/02/06 02:51:35;;;;;;;0.40;0.40;;;9.20;99.90;;;;;;4405422;32;20069;-76
2024/02/06 02:54:00;;;;;;;5.03;2.40;;;9.20;99.90;;;;;;4402601;32;20415;-76
2024/02/06 02:56:27;;;;;;;4.03;1.77;;;9.20;99.90;;;;;;4402256;32;20094;-77
2024/02/06 02:58:52;;;;;;;0.35;0.35;;;9.10;99.90;;;;;;4402585;32;20113;-76
2024/02/06 03:01:18;;;;;;;0.40;0.40;;;9.20;99.90;;;;;;4404794;32;20077;-77
2024/02/06 03:03:43;;;;;;;6.03;2.37;;;9.10;99.90;;;;;;4404401;32;20133;-77
2024/02/06 03:06:18;;;;;;;3.50;1.87;;;9.10;99.90;;;;;;4402850;32;20081;-77
2024/02/06 03:08:43;;;;;;;0.50;0.50;;;9.10;99.90;;;;;;4398202;32;20069;-76
2024/02/06 03:11:09;;;;;;;0.30;0.30;;;9.10;99.90;;;;;;4404373;32;20138;-76
2024/02/06 03:13:35;;;;;;;0.40;0.40;;;9.20;99.90;;;;;;4405927;32;20093;-77
2024/02/06 03:16:00;;;;;;;6.65;0.50;;;9.10;99.90;;;;;;4405911;32;20081;-76
2024/02/06 03:18:26;;;;;;;0.98;0.93;;;9.10;99.90;;;;;;4401543;32;20514;-77
2024/02/06 03:20:52;;;;;;;3.67;0.88;;;9.10;99.90;;;;;;4405613;32;20086;-76
2024/02/06 03:23:22;;;;;;;0.50;0.50;;;9.20;99.90;;;;;;4409997;32;20108;-76
2024/02/06 03:25:47;;;;;;;0.30;0.30;;;9.20;99.90;;;;;;4408847;32;20138;-77
2024/02/06 03:28:13;;;;;;;0.40;0.40;;;9.20;99.90;;;;;;4401989;32;20129;-76
2024/02/06 03:30:41;;;;;;;2.05;0.82;;;9.20;99.90;;;;;;4401517;32;20487;-74
2024/02/06 03:33:07;;;;;;;2.75;0.90;;;9.20;99.90;;;;;;4403447;32;20073;-76
2024/02/06 03:35:32;;;;;;;0.80;0.60;;;9.20;99.90;;;;;;4403032;32;20486;-76
2024/02/06 03:37:58;;;;;;;0.40;0.40;;;9.20;99.90;;;;;;4401142;32;20075;-77
2024/02/06 03:40:23;;;;;;;0.35;0.35;;;9.20;99.90;;;;;;4401088;32;20070;-78
2024/02/06 03:42:49;;;;;;;0.30;0.30;;;9.20;99.90;;;;;;4401116;32;20128;-77
2024/02/06 03:45:14;;;;;;;0.47;0.47;;;9.20;99.90;;;;;;4401719;32;20194;-77
2024/02/06 03:47:40;;;;;;;0.40;0.40;;;9.20;99.90;;;;;;4405046;32;20085;-78
2024/02/06 03:50:06;;;;;;;0.32;0.32;;;9.20;99.90;;;;;;4399441;32;20601;-77
2024/02/06 03:52:32;;;;;;;0.30;0.30;;;9.30;99.90;;;;;;4406573;32;20069;-77
2024/02/06 03:54:57;;;;;;;0.47;0.47;;;9.20;99.90;;;;;;4403743;32;20467;-78
2024/02/06 03:57:23;;;;;;;0.40;0.40;;;9.20;99.90;;;;;;4401506;32;20082;-78
2024/02/06 03:59:48;;;;;;;0.30;0.30;;;9.20;99.90;;;;;;4400859;32;20132;-78
2024/02/06 04:02:17;;;;;;;0.22;0.22;;;9.30;99.90;;;;;;4401089;32;20077;-77
2024/02/06 04:04:43;;;;;;;3.42;0.80;;;9.30;99.90;;;;;;4402866;32;20093;-78
2024/02/06 04:07:09;;;;;;;0.57;0.57;;;9.20;99.90;;;;;;4402155;32;20070;-77
2024/02/06 04:09:35;;;;;;;0.40;0.40;;;9.30;99.90;;;;;;4401358;32;20081;-78
2024/02/06 04:12:00;;;;;;;5.05;1.00;;;9.30;99.90;;;;;;4404215;32;20065;-78
2024/02/06 04:14:26;;;;;;;0.40;0.40;;;9.30;99.90;;;;;;4399806;32;20453;-77
2024/02/06 04:16:54;;;;;;;0.50;0.50;;;9.30;99.90;;;;;;4405456;32;20600;-77
2024/02/06 04:19:21;;;;;;;0.30;0.30;;;9.30;99.90;;;;;;4400116;32;20078;-78
2024/02/06 04:21:47;;;;;;;0.40;0.40;;;9.30;99.90;;;;;;4404916;32;20129;-78
2024/02/06 04:24:12;;;;;;;0.40;0.40;;;9.30;99.90;;;;;;4401880;32;20144;-77
2024/02/06 04:26:38;;;;;;;4.47;1.45;;;9.30;99.90;;;;;;4404798;32;20476;-78
2024/02/06 04:29:04;;;;;;;0.40;0.40;;;9.30;99.90;;;;;;4401974;32;20083;-78
2024/02/06 04:31:30;;;;;;;0.40;0.40;;;9.30;99.90;;;;;;4400786;32;20058;-78
2024/02/06 04:33:55;;;;;;;0.32;0.32;;;9.30;99.90;;;;;;4403891;32;20072;-78
2024/02/06 04:36:22;;;;;;;0.30;0.30;;;9.30;99.90;;;;;;4402750;32;20138;-78
2024/02/06 04:38:48;;;;;;;0.30;0.30;;;9.30;99.90;;;;;;4402003;32;20074;-78
2024/02/06 04:41:14;;;;;;;0.30;0.30;;;9.30;99.90;;;;;;4400083;32;20076;-78
2024/02/06 04:43:39;;;;;;;0.52;0.52;;;9.30;99.90;;;;;;4400918;32;20121;-78
2024/02/06 04:46:06;;;;;;;0.35;0.35;;;9.30;99.90;;;;;;4399630;32;20420;-78
2024/02/06 04:48:32;;;;;;;0.50;0.50;;;9.30;99.90;;;;;;4406841;32;20542;-78
2024/02/06 04:50:57;;;;;;;0.50;0.50;;;9.30;99.90;;;;;;4406167;32;20135;-75
2024/02/06 04:53:23;;;;;;;0.55;0.55;;;9.30;99.90;;;;;;4405667;32;20549;-78
2024/02/06 04:55:49;;;;;;;1.87;1.40;;;9.30;99.90;;;;;;4409151;32;20085;-76
2024/02/06 04:58:15;;;;;;;0.30;0.30;;;9.20;99.90;;;;;;4405279;32;20170;-75
2024/02/06 05:00:40;;;;;;;3.10;0.65;;;9.30;99.90;;;;;;4406339;32;20061;-75
2024/02/06 05:03:06;;;;;;;0.32;0.32;;;9.20;99.90;;;;;;4406364;32;20502;-74
2024/02/06 05:05:31;;;;;;;0.40;0.40;;;9.30;99.90;;;;;;4407633;32;20069;-74
2024/02/06 05:07:57;;;;;;;0.30;0.30;;;9.30;99.90;;;;;;4404623;32;20142;-77
2024/02/06 05:10:22;;;;;;;0.40;0.40;;;9.30;99.90;;;;;;4402747;32;20076;-74
2024/02/06 05:12:48;;;;;;;0.77;0.77;;;9.30;99.90;;;;;;4402920;32;20431;-75
2024/02/06 05:15:14;;;;;;;0.40;0.40;;;9.30;99.90;;;;;;4403568;32;20082;-76
2024/02/06 05:17:41;;;;;;;0.40;0.40;;;9.20;99.90;;;;;;4406520;32;20066;-74
2024/02/06 05:20:09;;;;;;;1.83;1.08;;;9.20;99.90;;;;;;4405365;32;20547;-78
2024/02/06 05:22:37;;;;;;;0.80;0.80;;;9.20;99.90;;;;;;4401468;32;20642;-77
2024/02/06 05:25:03;;;;;;;0.60;0.60;;;9.20;99.90;;;;;;4403781;32;20793;-78
2024/02/06 05:27:28;;;;;;;0.50;0.50;;;9.20;99.90;;;;;;4404002;32;20142;-78
2024/02/06 05:29:54;;;;;;;0.40;0.40;;;9.20;99.90;;;;;;4405456;32;20077;-78
2024/02/06 05:32:20;;;;;;;1.85;1.15;;;9.20;99.90;;;;;;4404687;32;20126;-78
2024/02/06 05:34:45;;;;;;;0.73;0.73;;;9.30;99.90;;;;;;4401015;32;20117;-78
2024/02/06 05:37:10;;;;;;;0.40;0.40;;;9.30;99.90;;;;;;4403227;32;20521;-77
2024/02/06 05:39:36;;;;;;;0.47;0.47;;;9.30;99.90;;;;;;4407253;32;20113;-78
2024/02/06 05:42:03;;;;;;;0.40;0.40;;;9.30;99.90;;;;;;4406897;32;20561;-78
2024/02/06 05:44:28;;;;;;;0.68;0.68;;;9.30;99.90;;;;;;4406041;32;20537;-78
2024/02/06 05:46:54;;;;;;;0.68;0.68;;;9.40;99.90;;;;;;4404669;32;20078;-78
2024/02/06 05:49:19;;;;;;;0.50;0.50;;;9.40;99.90;;;;;;4406938;32;20538;-79
2024/02/06 05:51:45;;;;;;;0.30;0.30;;;9.40;99.90;;;;;;4400176;32;20098;-77
2024/02/06 05:54:11;;;;;;;0.40;0.40;;;9.40;99.90;;;;;;4402498;32;20093;-78
2024/02/06 05:56:37;;;;;;;0.50;0.50;;;9.40;99.90;;;;;;4404269;32;20514;-77
2024/02/06 05:59:03;;;;;;;0.30;0.30;;;9.40;99.90;;;;;;4405892;32;20077;-78
2024/02/06 06:01:29;;;;;;;1.40;0.60;;;9.50;99.90;;;;;;4402650;32;20129;-78
2024/02/06 06:03:55;;;;;;;0.30;0.30;;;9.50;99.90;;;;;;4401793;32;20105;-78
2024/02/06 06:06:21;;;;;;;0.43;0.43;;;9.50;99.90;;;;;;4392135;32;20194;-77
2024/02/06 06:08:47;;;;;;;0.30;0.30;;;9.50;99.90;;;;;;4405600;32;20146;-78
2024/02/06 06:11:12;;;;;;;1.75;0.70;;;9.50;99.90;;;;;;4402597;32;20196;-78
2024/02/06 06:13:38;;;;;;;0.30;0.30;;;9.60;99.90;;;;;;4391516;32;20078;-77
2024/02/06 06:16:04;;;;;;;0.20;0.20;;;9.60;99.90;;;;;;4400348;32;20449;-77
2024/02/06 06:18:30;;;;;;;0.30;0.30;;;9.60;99.90;;;;;;4403326;32;20081;-77
2024/02/06 06:20:56;;;;;;;0.50;0.50;;;9.50;99.90;;;;;;4397281;32;20105;-79
2024/02/06 06:23:22;;;;;;;0.32;0.32;;;9.60;99.90;;;;;;4403210;32;20062;-78
2024/02/06 06:25:47;;;;;;;0.35;0.35;;;9.50;99.90;;;;;;4398182;32;20819;-78
2024/02/06 06:28:13;;;;;;;0.50;0.50;;;9.50;99.90;;;;;;4391018;32;20085;-78
2024/02/06 06:30:38;;;;;;;0.40;0.40;;;9.50;99.90;;;;;;4400778;32;20089;-77
2024/02/06 06:33:05;;;;;;;1.27;0.95;;;9.60;99.90;;;;;;4402356;32;20125;-78
2024/02/06 06:35:31;;;;;;;1.12;0.50;;;9.60;99.90;;;;;;4402234;32;20483;-77
2024/02/06 06:37:56;;;;;;;0.80;0.80;;;9.60;99.90;;;;;;4403804;32;20120;-77
2024/02/06 06:40:22;;;;;;;0.45;0.45;;;9.60;99.90;;;;;;4407127;32;20096;-77
2024/02/06 06:42:48;;;;;;;0.30;0.30;;;9.60;99.90;;;;;;4406849;32;20125;-77
2024/02/06 06:45:14;;;;;;;0.75;0.52;;;9.60;99.90;;;;;;4409215;32;20089;-76
2024/02/06 06:47:40;;;;;;;0.55;0.55;;;9.60;99.90;;;;;;4402166;32;20568;-77
2024/02/06 06:50:06;;;;;;;1.12;0.80;;;9.70;99.90;;;;;;4404465;32;20082;-76
2024/02/06 06:52:32;;;;;;;0.35;0.35;;;9.70;99.90;;;;;;4403360;32;21190;-76
2024/02/06 06:54:57;;;;;;;1.15;0.52;;;9.70;99.90;;;;;;4404014;32;20070;-76
2024/02/06 06:57:24;;;;;;;0.40;0.40;;;9.70;99.90;;;;;;4402995;32;20139;-78
2024/02/06 06:59:49;;;;;;;0.52;0.52;;;9.70;99.90;;;;;;4406867;32;20080;-77
2024/02/06 07:02:17;;;;;;;0.50;0.50;;;9.70;99.90;;;;;;4403155;32;20097;-77
2024/02/06 07:04:43;;;;;;;0.30;0.30;;;9.70;99.90;;;;;;4404730;32;20089;-77
2024/02/06 07:07:09;;;;;;;0.30;0.30;;;9.70;99.90;;;;;;4409257;32;20361;-78
2024/02/06 07:09:34;;;;;;;0.40;0.40;;;9.70;99.90;;;;;;4404370;32;20069;-78
2024/02/06 07:12:00;;;;;;;0.30;0.30;;;9.70;99.90;;;;;;4403003;32;20736;-78
2024/02/06 07:14:25;;;;;;;0.40;0.40;;;9.70;99.90;;;;;;4403211;32;20436;-78
2024/02/06 07:16:51;;;;;;;1.75;1.00;;;9.70;99.90;;;;;;4407676;32;20070;-76
2024/02/06 07:19:17;;;;;;;0.30;0.30;;;9.80;99.90;;;;;;4405883;32;20085;-77
2024/02/06 07:21:53;;;;;;;0.32;0.32;;;9.80;99.90;;;;;;4403289;32;20115;-78
2024/02/06 07:24:19;;;;;;;0.40;0.40;;;9.80;99.90;;;;;;4406715;32;20466;-78
2024/02/06 07:26:45;;;;;;;0.50;0.50;;;9.80;99.90;;;;;;4400780;32;20197;-79
2024/02/06 07:29:12;;;;;;;0.75;0.70;;;9.80;99.90;;;;;;4401748;32;20534;-79
2024/02/06 07:31:37;;;;;;;0.40;0.40;;;9.80;99.90;;;;;;4405245;32;20097;-79
2024/02/06 07:34:03;;;;;;;0.25;0.25;;;9.90;99.90;;;;;;4401801;32;20085;-78
2024/02/06 07:36:29;;;;;;;0.50;0.50;;;9.90;99.90;;;;;;4402861;32;20078;-79
2024/02/06 07:38:55;;;;;;;0.35;0.35;;;9.90;99.90;;;;;;4403022;32;20141;-78
2024/02/06 07:41:21;;;;;;;0.40;0.40;;;9.90;99.90;;;;;;4404292;32;20585;-77
2024/02/06 07:43:46;;;;;;;0.30;0.30;;;9.90;99.90;;;;;;4403044;32;20157;-77
2024/02/06 07:46:12;;;;;;;0.37;0.32;;;9.90;99.90;;;;;;4402616;32;20140;-77
2024/02/06 07:48:37;;;;;;;0.30;0.30;;;9.90;99.90;;;;;;4403480;32;20076;-77
2024/02/06 07:51:03;;;;;;;0.37;0.37;;;9.80;99.90;;;;;;4404744;32;20142;-77
2024/02/06 07:53:30;;;;;;;0.57;0.52;;;9.80;99.90;;;;;;4410474;32;20073;-77
2024/02/06 07:55:56;;;;;;;0.55;0.55;;;9.90;99.90;;;;;;4403150;32;20093;-77
2024/02/06 07:58:22;;;;;;;0.45;0.45;;;9.90;99.90;;;;;;4403201;32;20081;-77
2024/02/06 08:00:47;;;;;;;0.98;0.95;;;9.90;99.90;;;;;;4406065;32;20121;-76
2024/02/06 08:03:15;;;;;;;0.55;0.55;;;9.90;99.90;;;;;;4402259;32;20102;-77
2024/02/06 08:05:40;;;;;;;0.35;0.35;;;9.90;99.90;;;;;;4405360;32;20436;-77
2024/02/06 08:08:07;;;;;;;0.30;0.30;;;10.00;99.90;;;;;;4405094;32;20081;-77
2024/02/06 08:10:33;;;;;;;0.40;0.40;;;10.00;99.90;;;;;;4401638;32;20070;-77
2024/02/06 08:12:58;;;;;;;0.30;0.30;;;10.00;99.90;;;;;;4404325;32;20074;-78
2024/02/06 08:15:24;;;;;;;0.30;0.30;;;10.00;99.90;;;;;;4403573;32;20076;-77
2024/02/06 08:17:50;;;;;;;1.02;0.93;;;10.00;99.90;;;;;;4400235;32;20073;-77
2024/02/06 08:20:19;;;;;;;0.43;0.43;;;10.00;99.90;;;;;;4399764;32;20090;-76
2024/02/06 08:22:47;;;;;;;0.40;0.40;;;10.10;99.90;;;;;;4403253;32;20601;-77
2024/02/06 08:25:13;;;;;;;0.50;0.50;;;10.10;99.90;;;;;;4404666;32;20168;-77
2024/02/06 08:27:39;;;;;;;0.30;0.30;;;10.10;99.90;;;;;;4408841;32;20089;-77
2024/02/06 08:30:05;;;;;;;0.30;0.30;;;10.10;99.90;;;;;;4410525;32;20070;-78
2024/02/06 08:32:31;;;;;;;0.30;0.30;;;10.10;99.90;;;;;;4404010;32;20067;-77
2024/02/06 08:34:57;;;;;;;0.32;0.32;;;10.20;99.90;;;;;;4405219;32;20077;-78
2024/02/06 08:37:22;;;;;;;0.30;0.30;;;10.20;99.90;;;;;;4409231;32;20082;-76
2024/02/06 08:39:48;;;;;;;0.77;0.77;;;10.20;99.90;;;;;;4407285;32;20541;-77
2024/02/06 08:42:13;;;;;;;0.30;0.30;;;10.20;99.90;;;;;;4403759;32;20145;-76
2024/02/06 08:44:40;;;;;;;0.80;0.50;;;10.20;99.90;;;;;;4404289;32;20097;-77
2024/02/06 08:47:06;;;;;;;0.50;0.50;;;10.30;99.90;;;;;;4411149;32;20060;-76
2024/02/06 08:49:31;;;;;;;0.35;0.35;;;10.30;99.90;;;;;;4408114;32;20580;-76
2024/02/06 08:51:57;;;;;;;0.70;0.70;;;10.30;99.90;;;;;;4411806;32;20078;-77
2024/02/06 08:54:22;;;;;;;0.88;0.75;;;10.30;99.90;;;;;;4410422;32;20128;-77
2024/02/06 08:56:48;;;;;;;0.30;0.30;;;10.30;99.90;;;;;;4407380;32;20287;-78
2024/02/06 08:59:13;;;;;;;0.40;0.40;;;10.40;99.90;;;;;;4405428;32;20090;-78
2024/02/06 09:01:39;;;;;;;0.35;0.35;;;10.50;99.90;;;;;;4407129;32;20793;-78
2024/02/06 09:04:06;;;;;;;0.35;0.35;;;10.40;99.90;;;;;;4406102;32;20089;-77
2024/02/06 09:06:32;;;;;;;1.75;1.12;;;10.40;99.90;;;;;;4408943;32;20171;-79
2024/02/06 09:08:58;;;;;;;2.83;0.82;;;10.50;99.90;;;;;;4410056;32;20086;-78
2024/02/06 09:11:25;;;;;;;0.40;0.40;;;10.50;99.90;;;;;;4405683;32;20074;-75
2024/02/06 09:13:51;;;;;;;0.50;0.50;;;10.50;99.90;;;;;;4406757;32;20509;-76
2024/02/06 09:16:17;;;;;;;0.50;0.50;;;10.60;99.90;;;;;;4409146;32;20422;-76
2024/02/06 09:18:42;;;;;;;0.40;0.40;;;10.60;99.90;;;;;;4404692;32;20143;-75
2024/02/06 09:21:07;;;;;;;2.55;0.98;;;10.70;99.90;;;;;;4409362;32;20153;-75
2024/02/06 09:23:33;;;;;;;0.40;0.40;;;10.70;99.90;;;;;;4407618;32;20081;-76
2024/02/06 09:25:59;;;;;;;3.92;1.87;;;10.70;99.90;;;;;;4408785;32;20066;-76
2024/02/06 09:28:27;;;;;;;0.68;0.68;;;10.70;99.90;;;;;;4404885;32;20077;-77
2024/02/06 09:30:53;;;;;;;1.08;0.98;;;10.70;99.90;;;;;;4404514;32;20081;-78
2024/02/06 09:33:18;;;;;;;0.57;0.57;;;10.70;99.90;;;;;;4408422;32;20094;-78
2024/02/06 09:35:44;;;;;;;0.73;0.73;;;10.70;99.90;;;;;;4407257;32;20347;-78
2024/02/06 09:38:10;;;;;;;0.40;0.40;;;10.70;99.90;;;;;;4404577;32;20073;-77
2024/02/06 09:40:36;;;;;;;0.37;0.37;;;10.70;99.90;;;;;;4400660;32;20058;-77
2024/02/06 09:43:04;;;;;;;0.40;0.40;;;10.80;99.90;;;;;;4403114;32;20532;-77
2024/02/06 09:45:30;;;;;;;0.90;0.35;;;10.80;99.90;;;;;;4403427;32;20081;-78
2024/02/06 09:47:55;;;;;;;0.57;0.57;;;10.80;99.90;;;;;;4402736;32;20077;-78
2024/02/06 09:50:21;;;;;;;4.65;1.70;;;10.80;99.90;;;;;;4403462;32;20058;-77
2024/02/06 09:52:50;;;;;;;0.30;0.30;;;10.80;99.90;;;;;;4401307;32;20447;-77
2024/02/06 09:55:18;;;;;;;0.40;0.40;;;10.80;99.90;;;;;;4401561;32;20077;-78
2024/02/06 09:57:44;;;;;;;1.73;1.02;;;10.80;99.90;;;;;;4403931;32;20094;-78
2024/02/06 10:02:41;;;;;;;0.35;0.35;;;10.90;99.90;;;;;;4403045;32;20142;-77
2024/02/06 10:05:12;;;;;;;0.40;0.40;;;10.90;99.90;;;;;;4402022;32;20147;-77
2024/02/06 10:07:39;;;;;;;0.50;0.50;;;10.90;99.90;;;;;;4400664;32;20533;-78
2024/02/06 10:10:07;;;;;;;0.40;0.40;;;10.90;99.90;;;;;;4400718;32;20177;-78
2024/02/06 10:12:33;;;;;;;0.37;0.37;;;11.00;99.90;;;;;;4400679;32;20093;-78
2024/02/06 10:14:59;;;;;;;0.50;0.50;;;11.00;99.90;;;;;;4400287;32;20146;-79
2024/02/06 10:17:26;;;;;;;0.70;0.70;;;11.00;99.90;;;;;;4401178;32;20058;-78
2024/02/06 10:19:51;;;;;;;0.30;0.30;;;11.10;99.90;;;;;;4403693;32;20128;-78
2024/02/06 10:22:17;;;;;;;0.30;0.30;;;11.10;99.90;;;;;;4401508;32;20172;-79
2024/02/06 10:24:42;;;;;;;0.90;0.75;;;11.10;99.90;;;;;;4400936;32;20102;-78
2024/02/06 10:27:08;;;;;;;0.20;0.20;;;11.10;99.90;;;;;;4402754;32;20065;-78
2024/02/06 10:29:34;;;;;;;0.60;0.60;;;11.10;99.90;;;;;;4403478;32;20097;-77
2024/02/06 10:32:00;;;;;;;0.88;0.85;;;11.10;99.90;;;;;;4402348;32;20093;-79
2024/02/06 10:34:27;;;;;;;0.43;0.43;;;11.00;99.90;;;;;;4402511;32;20076;-78
2024/02/06 10:36:58;;;;;;;0.57;0.55;;;11.10;99.90;;;;;;4390404;32;21088;-77
2024/02/06 10:39:27;;;;;;;0.40;0.40;;;11.10;99.90;;;;;;4394308;32;20542;-77
2024/02/06 10:41:58;;;;;;;0.50;0.50;;;11.10;99.90;;;;;;4396894;32;20103;-78
2024/02/06 10:44:24;;;;;;;0.52;0.52;;;11.10;99.90;;;;;;4399219;32;20117;-77
2024/02/06 10:47:05;;;;;;;0.40;0.40;;;11.10;99.90;;;;;;4400054;32;20194;-78
2024/02/06 10:49:31;;;;;;;3.78;1.90;;;11.00;99.90;;;;;;4401524;32;20172;-77
2024/02/06 10:52:05;;;;;;;0.50;0.50;;;11.00;99.90;;;;;;4405234;32;20077;-78
2024/02/06 10:54:32;;;;;;;0.45;0.45;;;11.00;99.90;;;;;;4402620;32;20085;-78
2024/02/06 10:57:05;;;;;;;0.30;0.30;;;11.00;99.90;;;;;;4401459;32;20097;-79
2024/02/06 10:59:40;;;;;;;0.30;0.30;;;11.10;99.90;;;;;;4401760;32;20458;-77
2024/02/06 11:02:22;;;;;;;0.50;0.50;;;11.10;99.90;;;;;;4401849;32;20154;-77
2024/02/06 11:05:08;;;;;;;0.40;0.40;;;11.10;99.90;;;;;;4402760;32;20074;-78
2024/02/06 11:07:42;;;;;;;0.30;0.30;;;11.10;99.90;;;;;;4392177;32;20089;-78
2024/02/06 11:10:13;;;;;;;1.77;1.30;;;11.10;99.90;;;;;;4402140;32;21563;-78
2024/02/06 11:12:39;;;;;;;0.60;0.60;;;11.10;99.90;;;;;;4400920;32;20077;-75
2024/02/06 11:15:08;;;;;;;2.28;0.75;;;11.00;99.90;;;;;;4399106;32;20078;-75
2024/02/06 11:17:34;;;;;;;0.45;0.45;;;11.00;99.90;;;;;;4401857;32;20802;-76
2024/02/06 11:20:04;;;;;;;0.50;0.50;;;11.00;99.90;;;;;;4406908;32;20533;-75
2024/02/06 11:22:36;;;;;;;0.40;0.40;;;11.00;99.90;;;;;;4405085;32;20414;-76
2024/02/06 11:25:02;;;;;;;0.22;0.22;;;11.00;99.90;;;;;;4403309;32;20129;-75
2024/02/06 11:27:29;;;;;;;0.43;0.43;;;11.00;99.90;;;;;;4401397;32;20074;-75
2024/02/06 11:29:55;;;;;;;0.30;0.30;;;11.00;99.90;;;;;;4402500;32;20065;-76
2024/02/06 11:32:21;;;;;;;0.50;0.50;;;11.10;99.90;;;;;;4402335;32;20094;-76
2024/02/06 11:34:52;;;;;;;0.52;0.52;;;11.10;99.90;;;;;;4404889;32;20073;-74
2024/02/06 11:37:26;;;;;;;0.55;0.55;;;11.10;99.90;;;;;;4406224;32;20074;-77
2024/02/06 11:40:10;;;;;;;0.22;0.22;;;11.10;99.90;;;;;;4403763;32;20082;-75
2024/02/06 11:42:39;;;;;;;0.30;0.30;;;11.10;99.90;;;;;;4402044;32;20078;-74
2024/02/06 11:45:10;;;;;;;0.40;0.40;;;11.10;99.90;;;;;;4403266;32;20097;-74
2024/02/06 11:47:38;;;;;;;0.50;0.50;;;11.10;99.90;;;;;;4405916;32;20077;-74
2024/02/06 11:50:12;;;;;;;0.30;0.30;;;11.10;99.90;;;;;;4407317;32;20093;-73
2024/02/06 11:52:38;;;;;;;0.30;0.30;;;11.10;99.90;;;;;;4403957;32;91527;-78
2024/02/06 11:55:05;;;;;;;0.55;0.55;;;11.20;99.90;;;;;;4404362;32;20077;-77
2024/02/06 11:57:31;;;;;;;0.22;0.22;;;11.20;99.90;;;;;;4403476;32;20062;-77
2024/02/06 11:59:58;;;;;;;0.50;0.50;;;11.30;99.90;;;;;;4406128;32;20093;-76
2024/02/06 12:02:24;;;;;;;0.30;0.30;;;11.30;99.90;;;;;;4401039;32;20507;-77
2024/02/06 12:04:49;;;;;;;1.17;0.98;;;11.40;99.90;;;;;;4403319;32;20080;-77
2024/02/06 12:07:16;;;;;;;0.30;0.30;;;11.40;99.90;;;;;;4403719;32;20097;-76
2024/02/06 12:09:42;;;;;;;0.32;0.32;;;11.40;99.90;;;;;;4400370;32;20443;-76
2024/02/06 12:12:10;;;;;;;0.80;0.80;;;11.50;99.90;;;;;;4406151;32;20093;-78
2024/02/06 12:14:35;;;;;;;0.35;0.35;;;11.50;99.90;;;;;;4399867;32;20078;-76
2024/02/06 12:17:02;;;;;;;0.30;0.30;;;11.50;99.90;;;;;;4406205;32;20069;-76
2024/02/06 12:19:27;;;;;;;0.30;0.30;;;11.50;99.90;;;;;;4404883;32;20124;-77
2024/02/06 12:22:12;;;;;;;1.25;0.98;;;11.60;99.90;;;;;;4406143;32;20128;-76
2024/02/06 12:24:38;;;;;;;1.75;0.50;;;11.60;99.90;;;;;;4401422;32;20526;-74
2024/02/06 12:27:07;;;;;;;0.50;0.50;;;11.60;99.90;;;;;;4403444;32;20073;-76
2024/02/06 12:29:40;;;;;;;0.40;0.40;;;11.60;99.90;;;;;;4401591;32;20069;-74
2024/02/06 12:32:06;;;;;;;0.40;0.40;;;11.70;99.90;;;;;;4401461;32;20133;-77
2024/02/06 12:34:33;;;;;;;1.05;0.60;;;11.70;99.90;;;;;;4400119;32;20586;-75
2024/02/06 12:37:02;;;;;;;0.50;0.50;;;11.70;99.90;;;;;;4403769;32;20520;-74
2024/02/06 12:39:30;;;;;;;0.40;0.40;;;11.70;99.90;;;;;;4399125;32;20106;-75
2024/02/06 12:42:00;;;;;;;0.43;0.43;;;11.70;99.90;;;;;;4400073;32;20094;-74
2024/02/06 12:44:26;;;;;;;2.62;2.12;;;11.70;99.90;;;;;;4402164;32;20094;-76
2024/02/06 12:46:54;;;;;;;0.45;0.45;;;11.70;99.90;;;;;;4403949;32;20063;-76
2024/02/06 12:49:21;;;;;;;0.40;0.40;;;11.60;99.90;;;;;;4402930;32;20093;-73
2024/02/06 12:51:46;;;;;;;0.50;0.50;;;11.60;99.90;;;;;;4405610;32;20517;-75